Time;durP1;ratioP1;P1;durP2;ratioP2;P2;SDS_P1;SDS_P2;PMS_P1;PMS_P2;Temp;Humidity;BMP_temperature;BMP_pressure;BME280_temperature;BME280_humidity;BME280_pressure;Samples;Min_cycle;Max_cycle;Signal;HPM_P1;HPM_P2
2023/09/13 00:02:04;;;;;;;53.30;34.00;;;;;;;;;;5120711;27;20252;-78
2023/09/13 00:04:30;;;;;;;50.20;33.70;;;;;;;;;;5127794;27;20232;-78
2023/09/13 00:06:55;;;;;;;55.15;34.88;;;;;;;;;;5099607;28;20183;-77
2023/09/13 00:09:21;;;;;;;55.67;32.97;;;;;;;;;;5107031;27;20190;-78
2023/09/13 00:11:48;;;;;;;49.90;33.90;;;;;;;;;;5116657;27;20251;-78
2023/09/13 00:14:13;;;;;;;53.03;34.63;;;;;;;;;;5117669;27;20187;-78
2023/09/13 00:16:39;;;;;;;52.25;33.80;;;;;;;;;;5111796;28;20260;-78
2023/09/13 00:19:06;;;;;;;50.95;32.05;;;;;;;;;;5111746;27;20185;-78
2023/09/13 00:21:32;;;;;;;49.78;32.35;;;;;;;;;;5126102;27;20243;-78
2023/09/13 00:23:58;;;;;;;46.38;32.00;;;;;;;;;;5119457;27;20175;-78
2023/09/13 00:26:23;;;;;;;49.70;33.05;;;;;;;;;;5106642;28;20186;-78
2023/09/13 00:28:50;;;;;;;47.67;32.28;;;;;;;;;;5120988;27;20269;-77
2023/09/13 00:31:15;;;;;;;47.20;31.00;;;;;;;;;;5126425;27;20634;-77
2023/09/13 00:33:41;;;;;;;54.17;31.92;;;;;;;;;;5112780;27;20193;-78
2023/09/13 00:36:06;;;;;;;53.85;33.70;;;;;;;;;;5128284;27;20254;-77
2023/09/13 00:38:31;;;;;;;45.25;30.00;;;;;;;;;;5112977;27;20185;-77
2023/09/13 00:40:57;;;;;;;45.08;30.90;;;;;;;;;;5123797;27;20198;-77
2023/09/13 00:43:24;;;;;;;48.65;31.38;;;;;;;;;;5123812;27;20187;-78
2023/09/13 00:45:50;;;;;;;49.40;33.00;;;;;;;;;;5132168;27;20534;-77
2023/09/13 00:48:17;;;;;;;59.13;34.55;;;;;;;;;;5123060;27;20191;-77
2023/09/13 00:50:46;;;;;;;49.97;32.35;;;;;;;;;;5126562;27;20207;-77
2023/09/13 00:53:13;;;;;;;50.05;33.28;;;;;;;;;;5113646;28;20195;-78
2023/09/13 00:55:39;;;;;;;42.88;28.88;;;;;;;;;;5107069;28;20274;-77
2023/09/13 00:58:04;;;;;;;50.75;32.60;;;;;;;;;;5103664;28;20299;-78
2023/09/13 01:00:32;;;;;;;49.15;32.10;;;;;;;;;;5107128;28;20238;-77
2023/09/13 01:02:58;;;;;;;52.30;32.45;;;;;;;;;;5087804;28;20189;-77
2023/09/13 01:05:24;;;;;;;48.80;31.05;;;;;;;;;;5103862;28;20245;-77
2023/09/13 01:07:49;;;;;;;48.13;30.60;;;;;;;;;;5106238;28;20190;-77
2023/09/13 01:10:15;;;;;;;48.47;33.15;;;;;;;;;;5095021;28;20631;-77
2023/09/13 01:12:40;;;;;;;51.80;32.00;;;;;;;;;;5105678;28;20183;-77
2023/09/13 01:15:07;;;;;;;48.70;31.85;;;;;;;;;;5125128;27;20693;-77
2023/09/13 01:17:45;;;;;;;51.65;31.63;;;;;;;;;;5104687;28;20215;-78
2023/09/13 01:20:19;;;;;;;48.33;31.77;;;;;;;;;;5096705;28;20183;-78
2023/09/13 01:22:56;;;;;;;46.53;30.77;;;;;;;;;;5101710;28;20183;-78
2023/09/13 01:25:28;;;;;;;46.00;30.52;;;;;;;;;;5110121;28;20601;-78
2023/09/13 01:28:35;;;;;;;46.95;30.92;;;;;;;;;;5093504;28;20199;-78
2023/09/13 01:31:09;;;;;;;46.95;30.30;;;;;;;;;;5102843;28;20626;-78
2023/09/13 01:33:34;;;;;;;47.70;30.98;;;;;;;;;;5099983;28;20547;-78
2023/09/13 01:36:00;;;;;;;44.10;29.75;;;;;;;;;;5105724;28;20200;-78
2023/09/13 01:38:26;;;;;;;48.30;30.70;;;;;;;;;;5100357;28;20280;-77
2023/09/13 01:40:56;;;;;;;49.90;28.60;;;;;;;;;;5105157;28;20190;-77
2023/09/13 01:43:22;;;;;;;44.25;29.52;;;;;;;;;;5102783;28;20241;-77
2023/09/13 01:45:48;;;;;;;56.65;30.35;;;;;;;;;;5098196;28;20228;-77
2023/09/13 01:48:16;;;;;;;45.28;30.08;;;;;;;;;;5096282;28;20278;-77
2023/09/13 01:50:41;;;;;;;44.47;29.15;;;;;;;;;;5111063;28;20244;-77
2023/09/13 01:53:07;;;;;;;44.35;28.23;;;;;;;;;;5098241;28;20270;-77
2023/09/13 01:55:34;;;;;;;41.38;28.45;;;;;;;;;;5120597;27;20692;-77
2023/09/13 01:58:00;;;;;;;45.05;29.10;;;;;;;;;;5148178;27;20239;-78
2023/09/13 02:00:25;;;;;;;46.35;29.08;;;;;;;;;;5146635;27;20604;-77
2023/09/13 02:02:51;;;;;;;43.00;28.23;;;;;;;;;;5142168;27;20194;-77
2023/09/13 02:05:16;;;;;;;50.40;29.15;;;;;;;;;;5111734;27;20198;-77
2023/09/13 02:07:42;;;;;;;43.42;29.50;;;;;;;;;;5117394;27;20474;-77
2023/09/13 02:10:07;;;;;;;41.05;28.02;;;;;;;;;;5134192;27;20576;-77
2023/09/13 02:12:33;;;;;;;44.42;28.30;;;;;;;;;;5121296;27;20198;-77
2023/09/13 02:14:58;;;;;;;44.78;28.00;;;;;;;;;;5141191;27;20206;-77
2023/09/13 02:17:24;;;;;;;46.65;28.92;;;;;;;;;;5142581;27;20249;-77
2023/09/13 02:19:50;;;;;;;51.33;29.50;;;;;;;;;;5151625;27;20275;-77
2023/09/13 02:22:17;;;;;;;49.25;28.77;;;;;;;;;;5095077;27;20281;-77
2023/09/13 02:24:42;;;;;;;45.25;28.98;;;;;;;;;;5116193;27;20182;-77
2023/09/13 02:27:08;;;;;;;44.85;27.35;;;;;;;;;;5107672;27;20183;-76
2023/09/13 02:29:33;;;;;;;46.28;29.52;;;;;;;;;;5125914;27;20218;-77
2023/09/13 02:31:59;;;;;;;43.90;28.67;;;;;;;;;;5106493;27;20194;-77
2023/09/13 02:34:24;;;;;;;47.67;30.65;;;;;;;;;;5146537;27;20263;-76
2023/09/13 02:36:50;;;;;;;45.38;29.00;;;;;;;;;;5116545;27;20794;-76
2023/09/13 02:39:35;;;;;;;45.03;29.20;;;;;;;;;;5113945;27;20885;-76
2023/09/13 02:42:05;;;;;;;45.97;28.88;;;;;;;;;;5106774;27;20218;-76
2023/09/13 02:44:31;;;;;;;41.78;27.98;;;;;;;;;;5125972;27;20325;-76
2023/09/13 02:46:57;;;;;;;45.63;29.42;;;;;;;;;;5144270;27;20215;-76
2023/09/13 02:49:24;;;;;;;40.95;28.27;;;;;;;;;;5124536;27;20246;-76
2023/09/13 02:51:51;;;;;;;50.08;29.88;;;;;;;;;;5123607;27;20632;-76
2023/09/13 02:54:16;;;;;;;45.40;29.63;;;;;;;;;;5145850;27;20198;-76
2023/09/13 02:56:42;;;;;;;46.55;28.80;;;;;;;;;;5124558;27;20317;-76
2023/09/13 02:59:07;;;;;;;44.28;28.15;;;;;;;;;;5101094;28;20194;-76
2023/09/13 03:01:33;;;;;;;42.65;26.80;;;;;;;;;;5115728;27;20207;-76
2023/09/13 03:03:58;;;;;;;48.45;28.73;;;;;;;;;;5118654;27;20184;-76
2023/09/13 03:06:23;;;;;;;45.53;27.00;;;;;;;;;;5130303;27;20182;-76
2023/09/13 03:08:49;;;;;;;49.88;29.27;;;;;;;;;;5128678;27;20669;-76
2023/09/13 03:11:16;;;;;;;50.47;28.83;;;;;;;;;;5114969;27;20634;-76
2023/09/13 03:13:41;;;;;;;48.03;27.33;;;;;;;;;;5105696;28;20193;-76
2023/09/13 03:16:25;;;;;;;45.03;28.02;;;;;;;;;;5095347;28;20286;-76
2023/09/13 03:18:51;;;;;;;43.92;27.23;;;;;;;;;;5097625;27;20234;-76
2023/09/13 03:21:24;;;;;;;49.90;28.35;;;;;;;;;;5106791;27;20275;-76
2023/09/13 03:23:50;;;;;;;52.78;27.55;;;;;;;;;;5114567;27;20187;-76
2023/09/13 03:26:25;;;;;;;42.20;25.35;;;;;;;;;;5110799;28;20198;-76
2023/09/13 03:28:52;;;;;;;36.00;24.70;;;;;;;;;;5117524;27;20182;-76
2023/09/13 03:31:20;;;;;;;46.13;27.23;;;;;;;;;;5116184;27;20239;-76
2023/09/13 03:33:47;;;;;;;42.72;26.42;;;;;;;;;;5127833;27;20186;-76
2023/09/13 03:36:13;;;;;;;45.67;25.95;;;;;;;;;;5129580;27;20207;-76
2023/09/13 03:38:40;;;;;;;44.30;27.52;;;;;;;;;;5126117;27;20191;-76
2023/09/13 03:41:11;;;;;;;42.15;27.10;;;;;;;;;;5122699;27;20183;-76
2023/09/13 03:43:37;;;;;;;47.33;27.70;;;;;;;;;;5117058;27;20199;-76
2023/09/13 03:46:04;;;;;;;50.70;29.48;;;;;;;;;;5113835;27;20731;-76
2023/09/13 03:48:33;;;;;;;47.25;29.23;;;;;;;;;;5115907;27;20268;-76
2023/09/13 03:50:59;;;;;;;42.35;26.05;;;;;;;;;;5116023;27;20187;-76
2023/09/13 03:53:25;;;;;;;55.65;27.73;;;;;;;;;;5113648;27;20186;-76
2023/09/13 03:55:51;;;;;;;55.13;26.63;;;;;;;;;;5128276;27;20242;-76
2023/09/13 03:58:17;;;;;;;34.90;23.67;;;;;;;;;;5117485;27;20642;-76
2023/09/13 04:00:42;;;;;;;49.38;28.40;;;;;;;;;;5142201;27;20217;-76
2023/09/13 04:03:08;;;;;;;44.45;25.48;;;;;;;;;;5117818;27;20285;-76
2023/09/13 04:05:33;;;;;;;50.92;30.02;;;;;;;;;;5113217;27;20197;-76
2023/09/13 04:07:58;;;;;;;53.72;29.50;;;;;;;;;;5102544;27;20194;-76
2023/09/13 04:10:24;;;;;;;53.97;30.50;;;;;;;;;;5120849;27;20272;-76
2023/09/13 04:12:50;;;;;;;50.92;31.02;;;;;;;;;;5122316;27;20566;-76
2023/09/13 04:15:16;;;;;;;45.47;28.50;;;;;;;;;;5140994;27;20186;-76
2023/09/13 04:17:41;;;;;;;52.67;30.67;;;;;;;;;;5114177;27;20213;-76
2023/09/13 04:20:08;;;;;;;52.60;31.75;;;;;;;;;;5119922;27;20192;-75
2023/09/13 04:22:33;;;;;;;52.78;31.58;;;;;;;;;;5099477;27;20183;-75
2023/09/13 04:24:58;;;;;;;53.38;30.92;;;;;;;;;;5112374;27;20310;-75
2023/09/13 04:27:24;;;;;;;49.90;31.25;;;;;;;;;;5123797;27;20190;-76
2023/09/13 04:29:54;;;;;;;54.35;31.70;;;;;;;;;;5119006;27;20595;-75
2023/09/13 04:32:20;;;;;;;55.50;32.40;;;;;;;;;;5134046;27;21092;-76
2023/09/13 04:34:46;;;;;;;57.03;33.13;;;;;;;;;;5132803;27;20261;-75
2023/09/13 04:37:12;;;;;;;52.95;33.60;;;;;;;;;;5137762;27;20281;-75
2023/09/13 04:39:38;;;;;;;56.08;32.95;;;;;;;;;;5104833;27;20657;-75
2023/09/13 04:42:06;;;;;;;50.88;32.03;;;;;;;;;;5135017;27;20193;-75
2023/09/13 04:44:32;;;;;;;46.03;27.73;;;;;;;;;;5122141;27;20190;-75
2023/09/13 04:46:57;;;;;;;57.90;30.63;;;;;;;;;;5121059;27;20542;-75
2023/09/13 04:49:24;;;;;;;52.50;32.30;;;;;;;;;;5121049;27;20193;-76
2023/09/13 04:51:49;;;;;;;54.80;30.65;;;;;;;;;;5105157;27;20185;-76
2023/09/13 04:54:14;;;;;;;50.83;31.33;;;;;;;;;;5109495;27;20186;-75
2023/09/13 04:56:40;;;;;;;55.97;31.98;;;;;;;;;;5116818;27;20707;-76
2023/09/13 04:59:05;;;;;;;53.03;31.42;;;;;;;;;;5131644;27;20233;-75
2023/09/13 05:01:31;;;;;;;50.72;32.15;;;;;;;;;;5137518;27;20183;-75
2023/09/13 05:03:57;;;;;;;52.10;31.27;;;;;;;;;;5105849;28;20182;-75
2023/09/13 05:06:23;;;;;;;52.85;32.13;;;;;;;;;;5118987;27;20186;-75
2023/09/13 05:08:52;;;;;;;57.20;32.90;;;;;;;;;;5141397;27;20558;-75
2023/09/13 05:11:17;;;;;;;52.33;31.20;;;;;;;;;;5136634;27;20197;-75
2023/09/13 05:13:47;;;;;;;57.55;31.92;;;;;;;;;;5138796;27;20284;-76
2023/09/13 05:16:19;;;;;;;59.17;33.72;;;;;;;;;;5126794;27;20203;-75
2023/09/13 05:18:45;;;;;;;55.92;32.55;;;;;;;;;;5138317;27;20201;-75
2023/09/13 05:21:10;;;;;;;56.70;32.58;;;;;;;;;;5139331;27;20542;-75
2023/09/13 05:23:36;;;;;;;57.08;32.28;;;;;;;;;;5140497;27;20198;-75
2023/09/13 05:26:02;;;;;;;53.22;32.72;;;;;;;;;;5102450;27;20183;-75
2023/09/13 05:28:31;;;;;;;46.25;30.33;;;;;;;;;;5121832;27;20639;-75
2023/09/13 05:30:56;;;;;;;51.17;31.85;;;;;;;;;;5136753;27;20182;-75
2023/09/13 05:33:25;;;;;;;58.97;34.15;;;;;;;;;;5117475;27;20193;-75
2023/09/13 05:35:51;;;;;;;54.97;33.55;;;;;;;;;;5122367;27;20206;-74
2023/09/13 05:38:16;;;;;;;54.55;34.25;;;;;;;;;;5116669;27;20671;-74
2023/09/13 05:40:41;;;;;;;61.00;33.70;;;;;;;;;;5136634;27;20602;-75
2023/09/13 05:43:07;;;;;;;57.75;32.92;;;;;;;;;;5124397;27;20190;-75
2023/09/13 05:45:32;;;;;;;48.30;30.73;;;;;;;;;;5110797;27;20179;-74
2023/09/13 05:47:59;;;;;;;43.65;27.92;;;;;;;;;;5138978;27;20201;-73
2023/09/13 05:50:25;;;;;;;42.70;29.50;;;;;;;;;;5112881;27;20239;-74
2023/09/13 05:52:50;;;;;;;44.97;30.70;;;;;;;;;;5138137;27;20187;-74
2023/09/13 05:55:16;;;;;;;36.60;25.50;;;;;;;;;;5116772;27;20645;-75
2023/09/13 05:57:41;;;;;;;48.15;30.17;;;;;;;;;;5126011;27;20206;-75
2023/09/13 06:00:07;;;;;;;41.30;27.20;;;;;;;;;;5119269;27;20546;-75
2023/09/13 06:02:34;;;;;;;39.60;27.35;;;;;;;;;;5125313;27;20209;-74
2023/09/13 06:05:00;;;;;;;41.88;28.40;;;;;;;;;;5128668;27;20181;-75
2023/09/13 06:07:25;;;;;;;43.70;29.50;;;;;;;;;;5114701;27;20185;-75
2023/09/13 06:09:51;;;;;;;39.75;26.63;;;;;;;;;;5131109;27;20189;-74
2023/09/13 06:12:17;;;;;;;38.92;28.58;;;;;;;;;;5123376;27;20182;-75
2023/09/13 06:14:43;;;;;;;43.10;27.98;;;;;;;;;;5110912;27;20205;-75
2023/09/13 06:17:08;;;;;;;41.42;27.33;;;;;;;;;;5119382;27;20514;-74
2023/09/13 06:19:34;;;;;;;44.65;28.75;;;;;;;;;;5106067;27;20187;-74
2023/09/13 06:21:59;;;;;;;43.60;29.63;;;;;;;;;;5152834;27;20182;-71
2023/09/13 06:24:25;;;;;;;45.55;28.15;;;;;;;;;;5133428;27;20193;-73
2023/09/13 06:26:50;;;;;;;45.38;29.35;;;;;;;;;;5115092;27;20179;-74
2023/09/13 06:29:15;;;;;;;43.00;28.63;;;;;;;;;;5115807;27;20549;-74
2023/09/13 06:31:41;;;;;;;38.42;25.02;;;;;;;;;;5129564;27;20186;-69
2023/09/13 06:34:06;;;;;;;35.85;23.15;;;;;;;;;;5141877;27;20183;-72
2023/09/13 06:36:32;;;;;;;26.50;20.58;;;;;;;;;;5131100;27;20202;-73
2023/09/13 06:38:57;;;;;;;29.95;20.90;;;;;;;;;;5112813;27;20197;-73
2023/09/13 06:41:22;;;;;;;28.52;20.33;;;;;;;;;;5126550;27;20277;-73
2023/09/13 06:43:48;;;;;;;27.05;19.70;;;;;;;;;;5138939;27;20508;-72
2023/09/13 06:46:13;;;;;;;28.90;20.60;;;;;;;;;;5130058;27;20626;-74
2023/09/13 06:48:39;;;;;;;28.33;22.05;;;;;;;;;;5129121;27;20218;-73
2023/09/13 06:51:04;;;;;;;12.52;6.25;;;;;;;;;;5127429;27;20182;-74
2023/09/13 06:53:29;;;;;;;7.80;2.50;;;;;;;;;;5114236;27;20258;-75
2023/09/13 06:55:55;;;;;;;3.70;1.75;;;;;;;;;;5132744;27;20227;-73
2023/09/13 06:58:21;;;;;;;6.03;1.30;;;;;;;;;;5117718;27;20193;-72
2023/09/13 07:00:46;;;;;;;5.13;0.80;;;;;;;;;;5139947;27;20183;-72
2023/09/13 07:03:12;;;;;;;5.28;1.10;;;;;;;;;;5113761;27;20186;-72
2023/09/13 07:05:37;;;;;;;2.80;1.05;;;;;;;;;;5117850;27;20594;-75
2023/09/13 07:08:03;;;;;;;3.38;1.17;;;;;;;;;;5144278;27;20285;-71
2023/09/13 07:10:29;;;;;;;4.38;1.30;;;;;;;;;;5145174;27;20185;-72
2023/09/13 07:12:55;;;;;;;6.05;1.27;;;;;;;;;;5140046;27;20191;-72
2023/09/13 07:15:20;;;;;;;4.68;1.00;;;;;;;;;;5142651;27;20569;-73
2023/09/13 07:17:45;;;;;;;3.38;1.23;;;;;;;;;;5113569;27;20263;-72
2023/09/13 07:20:11;;;;;;;6.00;1.10;;;;;;;;;;5113834;27;20642;-71
2023/09/13 07:22:37;;;;;;;4.05;1.30;;;;;;;;;;5131933;27;20226;-71
2023/09/13 07:25:06;;;;;;;4.97;1.40;;;;;;;;;;5132087;27;20187;-70
2023/09/13 07:27:31;;;;;;;3.83;1.30;;;;;;;;;;5121153;27;20190;-71
2023/09/13 07:29:57;;;;;;;5.13;1.52;;;;;;;;;;5145000;27;20765;-71
2023/09/13 07:32:22;;;;;;;4.78;1.67;;;;;;;;;;5132688;27;20202;-71
2023/09/13 07:34:48;;;;;;;4.30;1.30;;;;;;;;;;5117963;27;20182;-71
2023/09/13 07:37:13;;;;;;;5.75;1.35;;;;;;;;;;5133164;27;20372;-71
2023/09/13 07:39:39;;;;;;;3.45;1.50;;;;;;;;;;5130426;27;20205;-71
2023/09/13 07:42:06;;;;;;;4.43;1.77;;;;;;;;;;5144671;27;20209;-71
2023/09/13 07:44:31;;;;;;;4.05;1.40;;;;;;;;;;5144151;27;20551;-70
2023/09/13 07:46:56;;;;;;;5.90;1.67;;;;;;;;;;5133172;27;20258;-71
2023/09/13 07:49:22;;;;;;;8.02;1.80;;;;;;;;;;5133821;27;20186;-71
2023/09/13 07:51:47;;;;;;;4.82;1.63;;;;;;;;;;5133588;27;20182;-71
2023/09/13 07:54:13;;;;;;;5.38;1.75;;;;;;;;;;5141973;27;20190;-70
2023/09/13 07:56:38;;;;;;;4.65;1.58;;;;;;;;;;5132888;27;20227;-71
2023/09/13 07:59:05;;;;;;;3.45;1.77;;;;;;;;;;5142422;27;20596;-72
2023/09/13 08:01:30;;;;;;;5.00;1.60;;;;;;;;;;5134416;27;20514;-72
2023/09/13 08:03:56;;;;;;;7.18;2.17;;;;;;;;;;5130411;27;20260;-71
2023/09/13 08:06:22;;;;;;;4.90;1.88;;;;;;;;;;5130420;27;20182;-72
2023/09/13 08:08:48;;;;;;;6.82;1.90;;;;;;;;;;5121971;27;20186;-71
2023/09/13 08:11:14;;;;;;;4.72;1.70;;;;;;;;;;5141848;27;20190;-71
2023/09/13 08:13:40;;;;;;;5.22;2.00;;;;;;;;;;5150263;27;20189;-71
2023/09/13 08:16:06;;;;;;;7.15;2.10;;;;;;;;;;5105142;27;20678;-71
2023/09/13 08:18:31;;;;;;;6.47;2.20;;;;;;;;;;5110294;27;20221;-71
2023/09/13 08:20:56;;;;;;;6.63;1.98;;;;;;;;;;5120669;27;20186;-72
2023/09/13 08:23:22;;;;;;;5.97;1.80;;;;;;;;;;5142907;27;20195;-73
2023/09/13 08:25:47;;;;;;;6.85;1.98;;;;;;;;;;5113246;27;20178;-72
2023/09/13 08:28:13;;;;;;;7.30;2.00;;;;;;;;;;5132393;27;20194;-72
2023/09/13 08:30:38;;;;;;;4.18;1.33;;;;;;;;;;5134483;27;20198;-72
2023/09/13 08:33:05;;;;;;;4.50;1.55;;;;;;;;;;5136775;27;20182;-72
2023/09/13 08:35:31;;;;;;;8.38;1.60;;;;;;;;;;5131031;27;20616;-72
2023/09/13 08:37:56;;;;;;;4.25;1.55;;;;;;;;;;5124708;27;20262;-72
2023/09/13 08:40:24;;;;;;;7.82;1.88;;;;;;;;;;5118555;27;20286;-72
2023/09/13 08:42:50;;;;;;;4.78;1.52;;;;;;;;;;5126335;27;20183;-72
2023/09/13 08:45:15;;;;;;;5.25;1.52;;;;;;;;;;5125489;27;20190;-73
2023/09/13 08:47:44;;;;;;;5.18;1.65;;;;;;;;;;5130528;27;20521;-72
2023/09/13 08:50:11;;;;;;;5.40;1.42;;;;;;;;;;5126344;27;20766;-73
2023/09/13 08:52:38;;;;;;;3.83;1.80;;;;;;;;;;5134363;27;20300;-73
2023/09/13 08:55:06;;;;;;;5.60;1.77;;;;;;;;;;5126978;27;20634;-73
2023/09/13 08:57:34;;;;;;;3.45;1.67;;;;;;;;;;5141037;27;20232;-73
2023/09/13 08:59:59;;;;;;;3.38;1.52;;;;;;;;;;5140305;27;20198;-73
2023/09/13 09:02:26;;;;;;;3.58;1.70;;;;;;;;;;5139799;27;20186;-73
2023/09/13 09:04:52;;;;;;;3.67;1.52;;;;;;;;;;5136082;27;20201;-73
2023/09/13 09:07:19;;;;;;;3.17;1.27;;;;;;;;;;5148486;27;20193;-73
2023/09/13 09:09:46;;;;;;;4.88;1.30;;;;;;;;;;5130477;27;20277;-73
2023/09/13 09:12:15;;;;;;;3.75;1.60;;;;;;;;;;5133260;27;20194;-72
2023/09/13 09:14:43;;;;;;;5.32;1.40;;;;;;;;;;5130205;27;20553;-73
2023/09/13 09:17:11;;;;;;;3.63;1.50;;;;;;;;;;5142326;27;20266;-72
2023/09/13 09:19:37;;;;;;;4.32;1.50;;;;;;;;;;5137317;27;20240;-73
2023/09/13 09:22:03;;;;;;;4.15;1.50;;;;;;;;;;5136224;27;20191;-73
2023/09/13 09:24:29;;;;;;;3.25;1.50;;;;;;;;;;5144505;27;20241;-73
2023/09/13 09:26:55;;;;;;;3.45;1.20;;;;;;;;;;5135471;27;20683;-73
2023/09/13 09:29:33;;;;;;;7.28;1.75;;;;;;;;;;5139879;27;20187;-73
2023/09/13 09:31:59;;;;;;;3.83;1.67;;;;;;;;;;5101136;28;20561;-73
2023/09/13 09:34:30;;;;;;;4.43;1.67;;;;;;;;;;5137623;27;20186;-73
2023/09/13 09:37:02;;;;;;;3.30;1.45;;;;;;;;;;5138706;27;20202;-73
2023/09/13 09:39:27;;;;;;;5.45;1.90;;;;;;;;;;5135469;27;20194;-74
2023/09/13 09:41:57;;;;;;;3.28;1.40;;;;;;;;;;5137176;27;20182;-74
2023/09/13 09:44:27;;;;;;;2.92;1.33;;;;;;;;;;5151417;27;20221;-73
2023/09/13 09:46:52;;;;;;;4.57;1.63;;;;;;;;;;5136176;27;20219;-74
2023/09/13 09:49:18;;;;;;;2.88;1.55;;;;;;;;;;5149238;27;20706;-74
2023/09/13 09:51:43;;;;;;;4.43;1.42;;;;;;;;;;5129698;27;20183;-74
2023/09/13 09:54:10;;;;;;;6.03;1.50;;;;;;;;;;5140333;27;20656;-74
2023/09/13 09:56:35;;;;;;;4.63;1.30;;;;;;;;;;5145382;27;20650;-73
2023/09/13 09:59:01;;;;;;;4.78;1.75;;;;;;;;;;5129807;27;20198;-74
2023/09/13 10:01:26;;;;;;;3.00;1.10;;;;;;;;;;5131581;27;20265;-73
2023/09/13 10:03:56;;;;;;;3.75;1.58;;;;;;;;;;5136165;27;20195;-73
2023/09/13 10:06:22;;;;;;;3.20;1.20;;;;;;;;;;5148733;27;20275;-74
2023/09/13 10:08:49;;;;;;;4.47;1.38;;;;;;;;;;5136339;27;20187;-73
2023/09/13 10:11:17;;;;;;;5.13;1.65;;;;;;;;;;5136595;27;20190;-74
2023/09/13 10:13:46;;;;;;;6.03;1.75;;;;;;;;;;5132966;27;20232;-73
2023/09/13 10:16:13;;;;;;;5.00;1.38;;;;;;;;;;5113834;27;20331;-73
2023/09/13 10:18:48;;;;;;;2.63;1.55;;;;;;;;;;5138178;27;20672;-73
2023/09/13 10:21:18;;;;;;;6.65;1.73;;;;;;;;;;5119947;27;20186;-73
2023/09/13 10:23:52;;;;;;;8.43;2.15;;;;;;;;;;5135429;27;20708;-73
2023/09/13 10:26:20;;;;;;;5.50;1.95;;;;;;;;;;5149518;27;20189;-74
2023/09/13 10:28:46;;;;;;;5.45;1.85;;;;;;;;;;5132545;27;20207;-73
2023/09/13 10:31:17;;;;;;;7.18;2.38;;;;;;;;;;5142514;27;20724;-73
2023/09/13 10:33:45;;;;;;;5.22;1.95;;;;;;;;;;5142927;27;20618;-73
2023/09/13 10:36:19;;;;;;;8.73;1.92;;;;;;;;;;5150256;27;20210;-73
2023/09/13 10:39:26;;;;;;;6.05;2.33;;;;;;;;;;5141274;27;20648;-73
2023/09/13 10:42:06;;;;;;;7.65;1.90;;;;;;;;;;5112365;27;20267;-73
2023/09/13 10:44:34;;;;;;;4.70;1.90;;;;;;;;;;5112155;27;20191;-72
2023/09/13 10:47:00;;;;;;;5.72;2.38;;;;;;;;;;5131598;27;20413;-71
2023/09/13 10:49:25;;;;;;;5.65;2.47;;;;;;;;;;5127428;27;20223;-72
2023/09/13 10:51:50;;;;;;;5.95;2.60;;;;;;;;;;5141283;27;20189;-73
2023/09/13 10:54:18;;;;;;;5.82;2.22;;;;;;;;;;5153146;27;20205;-73
2023/09/13 10:56:43;;;;;;;5.72;2.58;;;;;;;;;;5119250;27;20585;-72
2023/09/13 10:59:12;;;;;;;5.10;2.30;;;;;;;;;;5124632;27;20181;-73
2023/09/13 11:01:45;;;;;;;5.32;2.50;;;;;;;;;;5152588;27;20247;-72
2023/09/13 11:04:11;;;;;;;6.20;2.28;;;;;;;;;;5142639;27;20637;-72
2023/09/13 11:06:37;;;;;;;7.50;2.97;;;;;;;;;;5100175;27;20179;-73
2023/09/13 11:09:17;;;;;;;5.15;2.50;;;;;;;;;;5130102;27;20285;-72
2023/09/13 11:11:52;;;;;;;6.07;2.42;;;;;;;;;;5125372;27;20505;-73
2023/09/13 11:14:23;;;;;;;5.50;2.30;;;;;;;;;;5113438;27;20242;-73
2023/09/13 11:16:49;;;;;;;7.05;2.50;;;;;;;;;;5147313;27;20206;-73
2023/09/13 11:19:17;;;;;;;5.82;2.25;;;;;;;;;;5139246;27;20692;-73
2023/09/13 11:21:49;;;;;;;4.50;2.20;;;;;;;;;;5139737;27;20195;-73
2023/09/13 11:24:33;;;;;;;5.25;2.13;;;;;;;;;;5132646;27;20185;-73
2023/09/13 11:27:09;;;;;;;10.77;3.33;;;;;;;;;;5124639;27;20273;-73
2023/09/13 11:29:41;;;;;;;5.20;2.78;;;;;;;;;;5144839;27;20184;-74
2023/09/13 11:32:06;;;;;;;6.80;2.33;;;;;;;;;;5136480;27;20263;-74
2023/09/13 11:34:37;;;;;;;8.48;2.25;;;;;;;;;;5145637;27;20219;-73
2023/09/13 11:37:07;;;;;;;5.55;1.92;;;;;;;;;;5131662;27;20608;-74
2023/09/13 11:39:33;;;;;;;7.47;2.75;;;;;;;;;;5147466;27;20197;-74
2023/09/13 11:41:58;;;;;;;6.35;2.10;;;;;;;;;;5142406;27;20653;-73
2023/09/13 11:44:25;;;;;;;6.90;2.05;;;;;;;;;;5115458;27;20227;-74
2023/09/13 11:46:54;;;;;;;7.35;1.80;;;;;;;;;;5151182;27;20194;-74
2023/09/13 11:49:21;;;;;;;4.82;1.73;;;;;;;;;;5122699;27;20194;-75
2023/09/13 11:51:52;;;;;;;8.30;2.30;;;;;;;;;;5131358;27;20201;-74
2023/09/13 11:54:21;;;;;;;6.30;2.17;;;;;;;;;;5122211;27;20234;-74
2023/09/13 11:56:48;;;;;;;6.88;1.90;;;;;;;;;;5138544;27;20668;-73
2023/09/13 11:59:14;;;;;;;4.80;1.70;;;;;;;;;;5118211;27;20277;-73
2023/09/13 12:01:45;;;;;;;5.63;2.13;;;;;;;;;;5137069;27;20238;-72
2023/09/13 12:04:11;;;;;;;7.45;2.50;;;;;;;;;;5151245;27;20317;-72
2023/09/13 12:06:43;;;;;;;4.05;1.88;;;;;;;;;;5118741;27;20182;-73
2023/09/13 12:09:27;;;;;;;5.38;2.10;;;;;;;;;;5118953;27;20646;-73
2023/09/13 12:11:55;;;;;;;5.90;1.98;;;;;;;;;;5145740;27;20261;-73
2023/09/13 12:14:24;;;;;;;5.00;1.70;;;;;;;;;;5138484;27;20262;-72
2023/09/13 12:16:50;;;;;;;4.75;1.48;;;;;;;;;;5139056;27;20225;-74
2023/09/13 12:19:15;;;;;;;5.53;1.33;;;;;;;;;;5142875;27;20209;-73
2023/09/13 12:21:45;;;;;;;3.90;1.13;;;;;;;;;;5125290;27;20190;-73
2023/09/13 12:24:17;;;;;;;2.58;1.17;;;;;;;;;;5130353;27;20187;-73
2023/09/13 12:26:43;;;;;;;4.57;1.45;;;;;;;;;;5149477;27;20360;-74
2023/09/13 12:29:08;;;;;;;3.33;1.10;;;;;;;;;;5111920;27;20556;-74
2023/09/13 12:31:34;;;;;;;5.75;1.10;;;;;;;;;;5136827;27;20195;-74
2023/09/13 12:34:01;;;;;;;5.85;1.42;;;;;;;;;;5142423;27;20182;-72
2023/09/13 12:36:27;;;;;;;5.10;1.38;;;;;;;;;;5102649;27;20202;-74
2023/09/13 12:38:53;;;;;;;3.92;1.50;;;;;;;;;;5131211;27;20187;-74
2023/09/13 12:41:28;;;;;;;4.75;1.20;;;;;;;;;;5114333;27;20676;-74
2023/09/13 12:43:53;;;;;;;3.17;1.45;;;;;;;;;;5147687;27;20203;-74
2023/09/13 12:46:20;;;;;;;4.25;1.40;;;;;;;;;;5116073;27;20625;-74
2023/09/13 12:48:46;;;;;;;7.43;1.60;;;;;;;;;;5124485;27;20220;-74
2023/09/13 12:51:23;;;;;;;8.25;1.33;;;;;;;;;;5150208;27;20217;-74
2023/09/13 12:53:52;;;;;;;4.18;1.30;;;;;;;;;;5124260;27;20189;-74
2023/09/13 12:56:17;;;;;;;4.25;1.50;;;;;;;;;;5107836;28;20231;-74
2023/09/13 12:58:49;;;;;;;6.18;1.50;;;;;;;;;;5109698;28;20587;-73
2023/09/13 13:01:15;;;;;;;4.85;1.80;;;;;;;;;;5119060;27;20320;-74
2023/09/13 13:04:01;;;;;;;5.30;1.58;;;;;;;;;;5114131;27;20669;-74
2023/09/13 13:06:27;;;;;;;6.97;1.60;;;;;;;;;;5099513;28;20585;-74
2023/09/13 13:09:04;;;;;;;6.88;1.73;;;;;;;;;;5108716;28;20270;-73
2023/09/13 13:11:40;;;;;;;10.52;1.92;;;;;;;;;;5119279;28;20186;-74
2023/09/13 13:14:17;;;;;;;3.88;1.38;;;;;;;;;;5116298;27;20183;-72
2023/09/13 13:16:44;;;;;;;3.42;1.45;;;;;;;;;;5108962;28;20219;-74
2023/09/13 13:19:10;;;;;;;6.32;1.38;;;;;;;;;;5118463;28;20440;-74
2023/09/13 13:21:35;;;;;;;7.22;1.95;;;;;;;;;;5114164;28;20183;-74
2023/09/13 13:24:01;;;;;;;8.88;1.90;;;;;;;;;;5114686;28;20197;-74
2023/09/13 13:26:26;;;;;;;5.45;1.73;;;;;;;;;;5109431;27;20547;-73
2023/09/13 13:28:52;;;;;;;6.55;1.90;;;;;;;;;;5113599;28;20596;-73
2023/09/13 13:31:19;;;;;;;7.90;1.88;;;;;;;;;;5115670;27;20236;-74
2023/09/13 13:33:45;;;;;;;5.88;2.10;;;;;;;;;;5110755;28;20244;-74
2023/09/13 13:36:11;;;;;;;7.45;2.55;;;;;;;;;;5109757;27;20283;-74
2023/09/13 13:38:37;;;;;;;7.07;2.85;;;;;;;;;;5109616;27;20248;-74
2023/09/13 13:41:13;;;;;;;647.00;87.03;;;;;;;;;;5112679;27;20278;-74
2023/09/13 13:43:40;;;;;;;6.90;2.47;;;;;;;;;;5120318;27;20568;-75
2023/09/13 13:46:10;;;;;;;7.00;2.10;;;;;;;;;;5117569;27;20510;-75
2023/09/13 13:48:37;;;;;;;5.07;2.00;;;;;;;;;;5121724;27;20551;-74
2023/09/13 13:51:05;;;;;;;7.93;2.08;;;;;;;;;;5123546;27;20261;-74
2023/09/13 13:53:32;;;;;;;6.00;2.10;;;;;;;;;;5122611;27;20180;-74
2023/09/13 13:55:58;;;;;;;4.38;1.83;;;;;;;;;;5127402;27;20231;-73
2023/09/13 13:58:23;;;;;;;7.15;2.20;;;;;;;;;;5127402;27;20194;-73
2023/09/13 14:00:50;;;;;;;6.75;2.25;;;;;;;;;;5128060;27;20556;-74
2023/09/13 14:03:16;;;;;;;6.38;2.10;;;;;;;;;;5127557;27;20195;-74
2023/09/13 14:05:42;;;;;;;8.07;2.28;;;;;;;;;;5127190;27;20499;-74
2023/09/13 14:08:09;;;;;;;6.85;2.55;;;;;;;;;;5120996;27;20247;-73
2023/09/13 14:10:39;;;;;;;6.80;2.30;;;;;;;;;;5118235;27;20662;-74
2023/09/13 14:13:05;;;;;;;4.85;2.40;;;;;;;;;;5125447;27;20585;-74
2023/09/13 14:15:31;;;;;;;436.38;49.75;;;;;;;;;;5125168;27;20183;-73
2023/09/13 14:17:56;;;;;;;8.18;2.75;;;;;;;;;;5129488;27;20566;-74
2023/09/13 14:20:21;;;;;;;15.18;4.38;;;;;;;;;;5120974;27;20685;-73
2023/09/13 14:22:47;;;;;;;6.25;2.38;;;;;;;;;;5114053;27;20269;-74
2023/09/13 14:25:12;;;;;;;6.40;1.80;;;;;;;;;;4414370;27;9999937;-73
2023/09/13 14:27:37;;;;;;;5.68;1.90;;;;;;;;;;5127735;27;20729;-74
2023/09/13 14:30:04;;;;;;;4.63;1.63;;;;;;;;;;5126773;27;20206;-74
2023/09/13 14:32:29;;;;;;;11.95;2.92;;;;;;;;;;5118050;27;20655;-74